Terminal Aerodrome Forecast
Issued by NWS

Home | Current Version | Previous Version | Graphics & Text | Print | Product List | Glossary On
Versions: 1 2 3 4 5 6 7 8 9 10 11 12 13 14 15 16 17 18 19 20 21 22 23 24 25 26 27 28 29 30
000
FTUS43 KLOT 030300 AAA
TAFORD
TAF AMD
KORD 030300Z 0303/0406 VRB04KT P6SM SKC
     FM031400 28008KT P6SM FEW080
     FM032000 25011G17KT P6SM BKN070
     FM040300 23011KT 6SM -SHRA SCT040 OVC070=

USA.gov is the U.S. government's official web portal to all federal, state and local government web resources and services.